sensor_id;sensor_type;location;lat;lon;timestamp;P1;durP1;ratioP1;P2;durP2;ratioP2
50363;SDS011;36272;59.400;17.982;2023-08-08T00:04:19;4.20;;;1.20;;
50363;SDS011;36272;59.400;17.982;2023-08-08T00:09:21;6.47;;;1.63;;
50363;SDS011;36272;59.400;17.982;2023-08-08T00:14:23;4.75;;;1.42;;
50363;SDS011;36272;59.400;17.982;2023-08-08T00:19:25;5.00;;;1.10;;
50363;SDS011;36272;59.400;17.982;2023-08-08T00:24:27;6.93;;;1.25;;
50363;SDS011;36272;59.400;17.982;2023-08-08T00:29:30;9.05;;;1.48;;
50363;SDS011;36272;59.400;17.982;2023-08-08T00:34:32;9.00;;;1.40;;
50363;SDS011;36272;59.400;17.982;2023-08-08T00:39:34;6.03;;;1.20;;
50363;SDS011;36272;59.400;17.982;2023-08-08T00:44:36;5.90;;;0.98;;
50363;SDS011;36272;59.400;17.982;2023-08-08T00:49:41;4.57;;;1.20;;
50363;SDS011;36272;59.400;17.982;2023-08-08T00:54:45;4.57;;;1.13;;
50363;SDS011;36272;59.400;17.982;2023-08-08T00:59:47;4.70;;;1.20;;
50363;SDS011;36272;59.400;17.982;2023-08-08T01:04:48;4.70;;;0.80;;
50363;SDS011;36272;59.400;17.982;2023-08-08T01:15:11;5.63;;;0.90;;
50363;SDS011;36272;59.400;17.982;2023-08-08T01:20:14;5.65;;;1.20;;
50363;SDS011;36272;59.400;17.982;2023-08-08T01:25:18;4.32;;;1.02;;
50363;SDS011;36272;59.400;17.982;2023-08-08T01:30:24;9.00;;;1.63;;
50363;SDS011;36272;59.400;17.982;2023-08-08T01:35:26;8.00;;;1.17;;
50363;SDS011;36272;59.400;17.982;2023-08-08T01:40:40;5.90;;;1.10;;
50363;SDS011;36272;59.400;17.982;2023-08-08T01:45:44;7.05;;;1.65;;
50363;SDS011;36272;59.400;17.982;2023-08-08T01:50:46;7.25;;;1.10;;
50363;SDS011;36272;59.400;17.982;2023-08-08T01:55:48;6.38;;;1.40;;
50363;SDS011;36272;59.400;17.982;2023-08-08T02:00:53;6.20;;;1.27;;
50363;SDS011;36272;59.400;17.982;2023-08-08T02:05:55;7.10;;;1.23;;
50363;SDS011;36272;59.400;17.982;2023-08-08T02:10:56;6.80;;;1.17;;
50363;SDS011;36272;59.400;17.982;2023-08-08T02:15:58;5.70;;;1.17;;
50363;SDS011;36272;59.400;17.982;2023-08-08T02:21:00;7.25;;;1.10;;
50363;SDS011;36272;59.400;17.982;2023-08-08T02:26:01;5.57;;;1.45;;
50363;SDS011;36272;59.400;17.982;2023-08-08T02:31:03;6.43;;;1.17;;
50363;SDS011;36272;59.400;17.982;2023-08-08T02:36:05;7.78;;;1.23;;
50363;SDS011;36272;59.400;17.982;2023-08-08T02:41:06;4.32;;;1.10;;
50363;SDS011;36272;59.400;17.982;2023-08-08T02:46:08;10.02;;;1.55;;
50363;SDS011;36272;59.400;17.982;2023-08-08T02:51:09;7.95;;;1.55;;
50363;SDS011;36272;59.400;17.982;2023-08-08T02:56:11;7.82;;;1.92;;
50363;SDS011;36272;59.400;17.982;2023-08-08T03:01:13;4.53;;;1.50;;
50363;SDS011;36272;59.400;17.982;2023-08-08T03:06:17;4.97;;;1.20;;
50363;SDS011;36272;59.400;17.982;2023-08-08T03:11:18;5.95;;;1.20;;
50363;SDS011;36272;59.400;17.982;2023-08-08T03:16:20;5.75;;;1.60;;
50363;SDS011;36272;59.400;17.982;2023-08-08T03:21:21;5.18;;;1.40;;
50363;SDS011;36272;59.400;17.982;2023-08-08T03:26:23;6.72;;;1.80;;
50363;SDS011;36272;59.400;17.982;2023-08-08T03:31:25;7.32;;;1.50;;
50363;SDS011;36272;59.400;17.982;2023-08-08T03:36:28;7.25;;;1.35;;
50363;SDS011;36272;59.400;17.982;2023-08-08T03:41:29;7.57;;;1.23;;
50363;SDS011;36272;59.400;17.982;2023-08-08T03:46:31;4.47;;;1.40;;
50363;SDS011;36272;59.400;17.982;2023-08-08T03:51:34;4.93;;;1.40;;
50363;SDS011;36272;59.400;17.982;2023-08-08T03:56:36;3.53;;;1.10;;
50363;SDS011;36272;59.400;17.982;2023-08-08T04:01:38;11.52;;;2.00;;
50363;SDS011;36272;59.400;17.982;2023-08-08T04:06:39;8.13;;;1.50;;
50363;SDS011;36272;59.400;17.982;2023-08-08T04:11:41;3.20;;;1.20;;
50363;SDS011;36272;59.400;17.982;2023-08-08T04:16:42;3.83;;;0.98;;
50363;SDS011;36272;59.400;17.982;2023-08-08T04:21:44;5.22;;;0.95;;
50363;SDS011;36272;59.400;17.982;2023-08-08T04:26:46;4.15;;;0.90;;
50363;SDS011;36272;59.400;17.982;2023-08-08T04:31:47;1.90;;;0.82;;
50363;SDS011;36272;59.400;17.982;2023-08-08T04:36:49;3.20;;;1.02;;
50363;SDS011;36272;59.400;17.982;2023-08-08T04:41:51;3.45;;;1.27;;
50363;SDS011;36272;59.400;17.982;2023-08-08T04:46:52;3.33;;;1.00;;
50363;SDS011;36272;59.400;17.982;2023-08-08T04:51:54;4.78;;;1.20;;
50363;SDS011;36272;59.400;17.982;2023-08-08T04:56:55;2.70;;;1.00;;
50363;SDS011;36272;59.400;17.982;2023-08-08T05:01:57;4.25;;;1.15;;
50363;SDS011;36272;59.400;17.982;2023-08-08T05:06:59;5.95;;;1.17;;
50363;SDS011;36272;59.400;17.982;2023-08-08T05:12:00;6.60;;;1.33;;
50363;SDS011;36272;59.400;17.982;2023-08-08T05:17:02;4.45;;;1.00;;
50363;SDS011;36272;59.400;17.982;2023-08-08T05:22:04;2.42;;;0.85;;
50363;SDS011;36272;59.400;17.982;2023-08-08T05:27:06;5.35;;;1.08;;
50363;SDS011;36272;59.400;17.982;2023-08-08T05:32:08;4.90;;;1.30;;
50363;SDS011;36272;59.400;17.982;2023-08-08T05:37:10;2.67;;;1.30;;
50363;SDS011;36272;59.400;17.982;2023-08-08T05:42:11;3.00;;;1.05;;
50363;SDS011;36272;59.400;17.982;2023-08-08T05:47:13;6.90;;;1.20;;
50363;SDS011;36272;59.400;17.982;2023-08-08T05:52:14;5.85;;;1.08;;
50363;SDS011;36272;59.400;17.982;2023-08-08T05:57:16;6.55;;;1.17;;
50363;SDS011;36272;59.400;17.982;2023-08-08T06:02:18;5.00;;;1.00;;
50363;SDS011;36272;59.400;17.982;2023-08-08T06:07:19;2.40;;;1.13;;
50363;SDS011;36272;59.400;17.982;2023-08-08T06:12:21;2.25;;;0.98;;
50363;SDS011;36272;59.400;17.982;2023-08-08T06:17:22;3.70;;;0.88;;
50363;SDS011;36272;59.400;17.982;2023-08-08T06:22:24;2.28;;;0.90;;
50363;SDS011;36272;59.400;17.982;2023-08-08T06:27:26;1.73;;;0.60;;
50363;SDS011;36272;59.400;17.982;2023-08-08T06:32:35;1.27;;;0.68;;
50363;SDS011;36272;59.400;17.982;2023-08-08T06:37:37;1.48;;;0.57;;
50363;SDS011;36272;59.400;17.982;2023-08-08T06:42:39;1.65;;;0.63;;
50363;SDS011;36272;59.400;17.982;2023-08-08T06:47:40;2.15;;;0.70;;
50363;SDS011;36272;59.400;17.982;2023-08-08T06:52:42;1.17;;;0.68;;
50363;SDS011;36272;59.400;17.982;2023-08-08T06:57:44;3.50;;;0.70;;
50363;SDS011;36272;59.400;17.982;2023-08-08T07:02:48;1.77;;;0.80;;
50363;SDS011;36272;59.400;17.982;2023-08-08T07:07:50;3.60;;;0.80;;
50363;SDS011;36272;59.400;17.982;2023-08-08T07:12:52;1.05;;;0.88;;
50363;SDS011;36272;59.400;17.982;2023-08-08T07:17:54;2.00;;;0.82;;
50363;SDS011;36272;59.400;17.982;2023-08-08T07:22:55;0.60;;;0.60;;
50363;SDS011;36272;59.400;17.982;2023-08-08T07:27:57;2.22;;;0.50;;
50363;SDS011;36272;59.400;17.982;2023-08-08T07:32:59;2.90;;;1.00;;
50363;SDS011;36272;59.400;17.982;2023-08-08T07:38:00;2.65;;;0.95;;
50363;SDS011;36272;59.400;17.982;2023-08-08T07:43:02;6.72;;;0.90;;
50363;SDS011;36272;59.400;17.982;2023-08-08T07:48:04;4.20;;;1.00;;
50363;SDS011;36272;59.400;17.982;2023-08-08T07:53:06;1.65;;;1.10;;
50363;SDS011;36272;59.400;17.982;2023-08-08T07:58:10;4.75;;;1.42;;
50363;SDS011;36272;59.400;17.982;2023-08-08T08:03:13;5.93;;;1.70;;
50363;SDS011;36272;59.400;17.982;2023-08-08T08:08:15;4.30;;;1.27;;
50363;SDS011;36272;59.400;17.982;2023-08-08T08:13:17;3.40;;;1.50;;
50363;SDS011;36272;59.400;17.982;2023-08-08T08:18:19;1.98;;;1.20;;
50363;SDS011;36272;59.400;17.982;2023-08-08T08:23:21;4.72;;;1.70;;
50363;SDS011;36272;59.400;17.982;2023-08-08T08:28:23;3.00;;;1.40;;
50363;SDS011;36272;59.400;17.982;2023-08-08T08:33:24;2.38;;;1.70;;
50363;SDS011;36272;59.400;17.982;2023-08-08T08:38:26;5.57;;;1.75;;
50363;SDS011;36272;59.400;17.982;2023-08-08T08:43:28;2.72;;;1.45;;
50363;SDS011;36272;59.400;17.982;2023-08-08T08:48:29;2.17;;;1.63;;
50363;SDS011;36272;59.400;17.982;2023-08-08T08:53:32;3.35;;;1.60;;
50363;SDS011;36272;59.400;17.982;2023-08-08T08:58:36;6.13;;;1.77;;
50363;SDS011;36272;59.400;17.982;2023-08-08T09:03:37;3.88;;;1.60;;
50363;SDS011;36272;59.400;17.982;2023-08-08T09:08:39;1.63;;;1.02;;
50363;SDS011;36272;59.400;17.982;2023-08-08T09:13:41;2.97;;;0.70;;
50363;SDS011;36272;59.400;17.982;2023-08-08T09:18:43;2.35;;;1.25;;
50363;SDS011;36272;59.400;17.982;2023-08-08T09:23:44;2.72;;;1.00;;
50363;SDS011;36272;59.400;17.982;2023-08-08T09:28:46;1.42;;;0.70;;
50363;SDS011;36272;59.400;17.982;2023-08-08T09:33:47;0.82;;;0.40;;
50363;SDS011;36272;59.400;17.982;2023-08-08T09:38:50;2.05;;;0.52;;
50363;SDS011;36272;59.400;17.982;2023-08-08T09:43:52;1.98;;;0.40;;
50363;SDS011;36272;59.400;17.982;2023-08-08T09:48:55;0.98;;;0.80;;
50363;SDS011;36272;59.400;17.982;2023-08-08T09:53:57;2.08;;;1.27;;
50363;SDS011;36272;59.400;17.982;2023-08-08T09:59:00;2.33;;;1.35;;
50363;SDS011;36272;59.400;17.982;2023-08-08T10:04:02;2.63;;;1.42;;
50363;SDS011;36272;59.400;17.982;2023-08-08T10:09:05;4.65;;;1.45;;
50363;SDS011;36272;59.400;17.982;2023-08-08T10:14:07;5.72;;;1.65;;
50363;SDS011;36272;59.400;17.982;2023-08-08T10:19:11;1.70;;;1.50;;
50363;SDS011;36272;59.400;17.982;2023-08-08T10:24:13;2.10;;;1.73;;
50363;SDS011;36272;59.400;17.982;2023-08-08T10:29:21;2.80;;;1.05;;
50363;SDS011;36272;59.400;17.982;2023-08-08T10:45:00;1.70;;;0.63;;
50363;SDS011;36272;59.400;17.982;2023-08-08T10:55:24;0.65;;;0.57;;
50363;SDS011;36272;59.400;17.982;2023-08-08T11:00:33;0.98;;;0.50;;
50363;SDS011;36272;59.400;17.982;2023-08-08T11:05:37;1.45;;;0.75;;
50363;SDS011;36272;59.400;17.982;2023-08-08T11:10:40;1.08;;;0.60;;
50363;SDS011;36272;59.400;17.982;2023-08-08T11:15:42;2.00;;;0.40;;
50363;SDS011;36272;59.400;17.982;2023-08-08T11:20:44;0.75;;;0.70;;
50363;SDS011;36272;59.400;17.982;2023-08-08T11:25:46;4.53;;;0.90;;
50363;SDS011;36272;59.400;17.982;2023-08-08T11:30:48;1.60;;;0.90;;
50363;SDS011;36272;59.400;17.982;2023-08-08T11:35:51;3.35;;;1.20;;
50363;SDS011;36272;59.400;17.982;2023-08-08T11:40:53;2.10;;;1.02;;
50363;SDS011;36272;59.400;17.982;2023-08-08T11:45:56;1.42;;;1.15;;
50363;SDS011;36272;59.400;17.982;2023-08-08T11:51:03;3.05;;;1.15;;
50363;SDS011;36272;59.400;17.982;2023-08-08T11:56:05;1.83;;;1.20;;
50363;SDS011;36272;59.400;17.982;2023-08-08T12:01:08;6.57;;;1.70;;
50363;SDS011;36272;59.400;17.982;2023-08-08T12:06:13;2.58;;;1.35;;
50363;SDS011;36272;59.400;17.982;2023-08-08T12:11:16;1.70;;;0.90;;
50363;SDS011;36272;59.400;17.982;2023-08-08T12:16:17;2.35;;;0.77;;
50363;SDS011;36272;59.400;17.982;2023-08-08T12:21:19;4.75;;;1.05;;
50363;SDS011;36272;59.400;17.982;2023-08-08T12:26:21;3.67;;;1.10;;
50363;SDS011;36272;59.400;17.982;2023-08-08T12:31:23;6.57;;;0.88;;
50363;SDS011;36272;59.400;17.982;2023-08-08T12:36:24;3.45;;;0.77;;
50363;SDS011;36272;59.400;17.982;2023-08-08T12:41:26;2.53;;;0.75;;
50363;SDS011;36272;59.400;17.982;2023-08-08T12:46:28;2.65;;;0.93;;
50363;SDS011;36272;59.400;17.982;2023-08-08T12:51:30;2.50;;;0.88;;
50363;SDS011;36272;59.400;17.982;2023-08-08T12:56:31;3.83;;;0.98;;
50363;SDS011;36272;59.400;17.982;2023-08-08T13:01:33;7.32;;;1.35;;
50363;SDS011;36272;59.400;17.982;2023-08-08T13:06:35;2.35;;;0.65;;
50363;SDS011;36272;59.400;17.982;2023-08-08T13:11:36;3.22;;;0.85;;
50363;SDS011;36272;59.400;17.982;2023-08-08T13:16:38;4.30;;;0.98;;
50363;SDS011;36272;59.400;17.982;2023-08-08T13:21:39;4.40;;;1.10;;
50363;SDS011;36272;59.400;17.982;2023-08-08T13:26:41;9.10;;;1.10;;
50363;SDS011;36272;59.400;17.982;2023-08-08T13:31:43;6.00;;;1.23;;
50363;SDS011;36272;59.400;17.982;2023-08-08T13:36:44;4.63;;;1.20;;
50363;SDS011;36272;59.400;17.982;2023-08-08T13:41:46;6.07;;;1.38;;
50363;SDS011;36272;59.400;17.982;2023-08-08T13:46:47;2.58;;;1.00;;
50363;SDS011;36272;59.400;17.982;2023-08-08T13:51:49;3.67;;;1.20;;
50363;SDS011;36272;59.400;17.982;2023-08-08T13:56:51;6.63;;;1.70;;
50363;SDS011;36272;59.400;17.982;2023-08-08T14:01:52;8.05;;;1.35;;
50363;SDS011;36272;59.400;17.982;2023-08-08T14:06:54;6.85;;;1.00;;
50363;SDS011;36272;59.400;17.982;2023-08-08T14:11:55;4.32;;;1.27;;
50363;SDS011;36272;59.400;17.982;2023-08-08T14:16:57;3.92;;;0.90;;
50363;SDS011;36272;59.400;17.982;2023-08-08T14:21:59;4.35;;;0.98;;
50363;SDS011;36272;59.400;17.982;2023-08-08T14:27:00;3.72;;;0.73;;
50363;SDS011;36272;59.400;17.982;2023-08-08T14:32:02;4.05;;;1.10;;
50363;SDS011;36272;59.400;17.982;2023-08-08T14:37:04;4.70;;;1.08;;
50363;SDS011;36272;59.400;17.982;2023-08-08T14:42:09;4.35;;;1.42;;
50363;SDS011;36272;59.400;17.982;2023-08-08T14:47:11;8.00;;;1.30;;
50363;SDS011;36272;59.400;17.982;2023-08-08T14:52:13;4.22;;;1.20;;
50363;SDS011;36272;59.400;17.982;2023-08-08T14:57:14;2.67;;;1.00;;
50363;SDS011;36272;59.400;17.982;2023-08-08T15:02:21;5.25;;;1.10;;
50363;SDS011;36272;59.400;17.982;2023-08-08T15:07:23;5.53;;;1.20;;
50363;SDS011;36272;59.400;17.982;2023-08-08T15:12:24;4.80;;;1.30;;
50363;SDS011;36272;59.400;17.982;2023-08-08T15:17:27;7.78;;;1.73;;
50363;SDS011;36272;59.400;17.982;2023-08-08T15:22:29;5.72;;;1.00;;
50363;SDS011;36272;59.400;17.982;2023-08-08T15:27:31;13.75;;;1.95;;
50363;SDS011;36272;59.400;17.982;2023-08-08T15:32:36;7.23;;;1.33;;
50363;SDS011;36272;59.400;17.982;2023-08-08T15:37:39;2.60;;;0.73;;
50363;SDS011;36272;59.400;17.982;2023-08-08T15:42:41;7.43;;;1.17;;
50363;SDS011;36272;59.400;17.982;2023-08-08T15:47:44;3.90;;;1.20;;
50363;SDS011;36272;59.400;17.982;2023-08-08T15:52:45;7.40;;;0.90;;
50363;SDS011;36272;59.400;17.982;2023-08-08T15:57:48;5.45;;;1.10;;
50363;SDS011;36272;59.400;17.982;2023-08-08T16:02:50;2.75;;;1.00;;
50363;SDS011;36272;59.400;17.982;2023-08-08T16:07:52;5.07;;;0.90;;
50363;SDS011;36272;59.400;17.982;2023-08-08T16:12:53;4.18;;;1.00;;
50363;SDS011;36272;59.400;17.982;2023-08-08T16:17:56;9.20;;;1.73;;
50363;SDS011;36272;59.400;17.982;2023-08-08T16:23:03;5.28;;;1.20;;
50363;SDS011;36272;59.400;17.982;2023-08-08T16:28:07;4.45;;;1.55;;
50363;SDS011;36272;59.400;17.982;2023-08-08T16:33:09;7.78;;;1.17;;
50363;SDS011;36272;59.400;17.982;2023-08-08T16:38:18;6.10;;;1.38;;
50363;SDS011;36272;59.400;17.982;2023-08-08T16:43:42;6.40;;;1.23;;
50363;SDS011;36272;59.400;17.982;2023-08-08T16:48:44;6.85;;;1.63;;
50363;SDS011;36272;59.400;17.982;2023-08-08T16:53:47;7.47;;;1.13;;
50363;SDS011;36272;59.400;17.982;2023-08-08T16:58:52;9.15;;;1.98;;
50363;SDS011;36272;59.400;17.982;2023-08-08T17:03:54;3.80;;;0.95;;
50363;SDS011;36272;59.400;17.982;2023-08-08T17:08:55;8.98;;;1.63;;
50363;SDS011;36272;59.400;17.982;2023-08-08T17:13:57;8.80;;;1.35;;
50363;SDS011;36272;59.400;17.982;2023-08-08T17:18:59;9.45;;;1.77;;
50363;SDS011;36272;59.400;17.982;2023-08-08T17:24:00;10.63;;;1.73;;
50363;SDS011;36272;59.400;17.982;2023-08-08T17:29:03;5.95;;;1.27;;
50363;SDS011;36272;59.400;17.982;2023-08-08T17:34:10;8.00;;;1.55;;
50363;SDS011;36272;59.400;17.982;2023-08-08T17:39:12;10.60;;;1.60;;
50363;SDS011;36272;59.400;17.982;2023-08-08T17:44:13;11.50;;;2.13;;
50363;SDS011;36272;59.400;17.982;2023-08-08T17:49:15;8.85;;;1.73;;
50363;SDS011;36272;59.400;17.982;2023-08-08T17:54:17;12.13;;;1.70;;
50363;SDS011;36272;59.400;17.982;2023-08-08T17:59:18;5.28;;;1.20;;
50363;SDS011;36272;59.400;17.982;2023-08-08T18:04:20;5.07;;;1.33;;
50363;SDS011;36272;59.400;17.982;2023-08-08T18:09:22;8.10;;;1.77;;
50363;SDS011;36272;59.400;17.982;2023-08-08T18:14:23;10.82;;;2.00;;
50363;SDS011;36272;59.400;17.982;2023-08-08T18:19:25;9.63;;;1.77;;
50363;SDS011;36272;59.400;17.982;2023-08-08T18:24:27;9.23;;;2.13;;
50363;SDS011;36272;59.400;17.982;2023-08-08T18:29:28;7.53;;;1.80;;
50363;SDS011;36272;59.400;17.982;2023-08-08T18:34:30;9.20;;;1.83;;
50363;SDS011;36272;59.400;17.982;2023-08-08T18:39:32;7.50;;;1.75;;
50363;SDS011;36272;59.400;17.982;2023-08-08T18:44:33;12.45;;;1.83;;
50363;SDS011;36272;59.400;17.982;2023-08-08T18:49:35;7.00;;;2.10;;
50363;SDS011;36272;59.400;17.982;2023-08-08T18:54:37;6.32;;;2.40;;
50363;SDS011;36272;59.400;17.982;2023-08-08T18:59:38;9.57;;;2.60;;
50363;SDS011;36272;59.400;17.982;2023-08-08T19:04:40;11.63;;;2.47;;
50363;SDS011;36272;59.400;17.982;2023-08-08T19:09:42;7.78;;;2.38;;
50363;SDS011;36272;59.400;17.982;2023-08-08T19:14:43;9.45;;;2.63;;
50363;SDS011;36272;59.400;17.982;2023-08-08T19:19:47;11.93;;;2.38;;
50363;SDS011;36272;59.400;17.982;2023-08-08T19:24:49;11.77;;;2.90;;
50363;SDS011;36272;59.400;17.982;2023-08-08T19:29:56;12.45;;;2.97;;
50363;SDS011;36272;59.400;17.982;2023-08-08T19:35:00;9.85;;;2.15;;
50363;SDS011;36272;59.400;17.982;2023-08-08T19:40:01;11.70;;;2.58;;
50363;SDS011;36272;59.400;17.982;2023-08-08T19:45:29;12.65;;;2.20;;
50363;SDS011;36272;59.400;17.982;2023-08-08T19:50:31;12.43;;;2.70;;
50363;SDS011;36272;59.400;17.982;2023-08-08T19:55:33;10.52;;;2.65;;
50363;SDS011;36272;59.400;17.982;2023-08-08T20:00:35;9.27;;;1.90;;
50363;SDS011;36272;59.400;17.982;2023-08-08T20:05:37;13.60;;;2.38;;
50363;SDS011;36272;59.400;17.982;2023-08-08T20:10:38;8.38;;;2.05;;
50363;SDS011;36272;59.400;17.982;2023-08-08T20:15:40;9.30;;;2.35;;
50363;SDS011;36272;59.400;17.982;2023-08-08T20:20:42;11.23;;;2.20;;
50363;SDS011;36272;59.400;17.982;2023-08-08T20:25:43;8.65;;;2.05;;
50363;SDS011;36272;59.400;17.982;2023-08-08T20:30:45;9.05;;;2.10;;
50363;SDS011;36272;59.400;17.982;2023-08-08T20:35:47;9.63;;;2.20;;
50363;SDS011;36272;59.400;17.982;2023-08-08T20:40:49;10.90;;;2.00;;
50363;SDS011;36272;59.400;17.982;2023-08-08T20:45:51;8.70;;;1.80;;
50363;SDS011;36272;59.400;17.982;2023-08-08T20:50:53;8.80;;;2.33;;
50363;SDS011;36272;59.400;17.982;2023-08-08T20:55:55;9.60;;;2.15;;
50363;SDS011;36272;59.400;17.982;2023-08-08T21:00:56;9.35;;;1.98;;
50363;SDS011;36272;59.400;17.982;2023-08-08T21:05:58;10.10;;;2.03;;
50363;SDS011;36272;59.400;17.982;2023-08-08T21:11:00;7.60;;;1.83;;
50363;SDS011;36272;59.400;17.982;2023-08-08T21:16:01;6.63;;;1.42;;
50363;SDS011;36272;59.400;17.982;2023-08-08T21:21:03;14.05;;;2.05;;
50363;SDS011;36272;59.400;17.982;2023-08-08T21:26:04;7.03;;;1.45;;
50363;SDS011;36272;59.400;17.982;2023-08-08T21:31:06;12.63;;;1.90;;
50363;SDS011;36272;59.400;17.982;2023-08-08T21:36:08;7.75;;;1.85;;
50363;SDS011;36272;59.400;17.982;2023-08-08T21:41:09;7.22;;;1.70;;
50363;SDS011;36272;59.400;17.982;2023-08-08T21:46:11;10.77;;;1.60;;
50363;SDS011;36272;59.400;17.982;2023-08-08T21:51:12;8.68;;;1.75;;
50363;SDS011;36272;59.400;17.982;2023-08-08T21:56:14;6.22;;;1.80;;
50363;SDS011;36272;59.400;17.982;2023-08-08T22:01:16;7.63;;;1.60;;
50363;SDS011;36272;59.400;17.982;2023-08-08T22:06:17;13.73;;;3.00;;
50363;SDS011;36272;59.400;17.982;2023-08-08T22:11:19;11.63;;;1.90;;
50363;SDS011;36272;59.400;17.982;2023-08-08T22:16:20;9.40;;;1.98;;
50363;SDS011;36272;59.400;17.982;2023-08-08T22:21:22;12.48;;;2.20;;
50363;SDS011;36272;59.400;17.982;2023-08-08T22:26:24;13.05;;;2.33;;
50363;SDS011;36272;59.400;17.982;2023-08-08T22:31:25;6.70;;;1.88;;
50363;SDS011;36272;59.400;17.982;2023-08-08T22:36:27;6.63;;;2.25;;
50363;SDS011;36272;59.400;17.982;2023-08-08T22:41:29;9.65;;;2.13;;
50363;SDS011;36272;59.400;17.982;2023-08-08T22:46:30;10.18;;;2.30;;
50363;SDS011;36272;59.400;17.982;2023-08-08T22:51:32;10.45;;;1.92;;
50363;SDS011;36272;59.400;17.982;2023-08-08T22:56:34;14.73;;;2.55;;
50363;SDS011;36272;59.400;17.982;2023-08-08T23:01:35;18.30;;;2.63;;
50363;SDS011;36272;59.400;17.982;2023-08-08T23:06:37;15.95;;;3.70;;
50363;SDS011;36272;59.400;17.982;2023-08-08T23:11:39;10.30;;;1.98;;
50363;SDS011;36272;59.400;17.982;2023-08-08T23:16:40;9.10;;;2.10;;
50363;SDS011;36272;59.400;17.982;2023-08-08T23:21:42;9.98;;;2.13;;
50363;SDS011;36272;59.400;17.982;2023-08-08T23:26:44;12.10;;;2.35;;
50363;SDS011;36272;59.400;17.982;2023-08-08T23:31:47;9.38;;;2.53;;
50363;SDS011;36272;59.400;17.982;2023-08-08T23:36:49;13.15;;;2.20;;
50363;SDS011;36272;59.400;17.982;2023-08-08T23:41:50;15.20;;;2.55;;
50363;SDS011;36272;59.400;17.982;2023-08-08T23:46:52;13.38;;;2.35;;
50363;SDS011;36272;59.400;17.982;2023-08-08T23:51:53;8.52;;;2.70;;
50363;SDS011;36272;59.400;17.982;2023-08-08T23:56:55;11.48;;;2.83;;
